Time;durP1;ratioP1;P1;durP2;ratioP2;P2;SDS_P1;SDS_P2;PMS_P1;PMS_P2;Temp;Humidity;BMP_temperature;BMP_pressure;BME280_temperature;BME280_humidity;BME280_pressure;Samples;Min_cycle;Max_cycle;Signal;HPM_P1;HPM_P2
2022/06/22 05:34:41;;;;;;;4.95;3.08;;;;;;;15.79;68.58;101509.69;5053646;27;113559;-35
2022/06/22 05:37:13;;;;;;;5.85;3.35;;;;;;;15.81;68.59;101505.00;5053743;27;96895;-35
2022/06/22 05:39:40;;;;;;;5.72;3.45;;;;;;;15.92;68.23;101512.38;5053054;27;100994;-35
2022/06/22 05:42:08;;;;;;;6.97;4.03;;;;;;;16.03;67.35;101520.69;5053375;27;100781;-35
2022/06/22 05:44:37;;;;;;;6.00;3.50;;;;;;;16.06;68.05;101509.50;5053206;27;96549;-34
2022/06/22 05:47:04;;;;;;;6.65;3.33;;;;;;;16.20;67.65;101518.56;5057273;27;96769;-35
2022/06/22 05:49:40;;;;;;;6.50;3.83;;;;;;;16.22;68.46;101503.78;5056456;27;101014;-34
2022/06/22 05:52:21;;;;;;;9.23;3.78;;;;;;;16.28;67.74;101503.34;5056726;27;100780;-35
2022/06/22 05:54:52;;;;;;;8.23;3.53;;;;;;;16.44;67.89;101508.50;5057313;27;96535;-34
2022/06/22 05:57:27;;;;;;;6.10;3.63;;;;;;;16.52;67.86;101500.59;5057244;27;96691;-35
2022/06/22 06:00:00;;;;;;;7.00;3.83;;;;;;;16.64;66.72;101515.19;5058120;27;101393;-35
2022/06/22 06:02:33;;;;;;;11.50;4.03;;;;;;;16.68;66.90;101502.16;5073652;27;104178;-35
2022/06/22 06:05:14;;;;;;;6.55;3.22;;;;;;;16.74;67.16;101512.63;5056137;27;97037;-35
2022/06/22 06:07:48;;;;;;;11.00;4.10;;;;;;;16.77;67.58;101504.19;5057037;27;96638;-34
2022/06/22 06:10:21;;;;;;;7.78;3.28;;;;;;;16.94;66.54;101506.50;5057896;27;99088;-35
2022/06/22 06:13:00;;;;;;;6.15;3.35;;;;;;;17.05;66.73;101508.41;5056450;27;101332;-34
2022/06/22 06:15:31;;;;;;;6.03;3.85;;;;;;;17.09;66.48;101506.28;5057575;27;96460;-34
2022/06/22 06:17:58;;;;;;;6.23;3.40;;;;;;;17.13;66.74;101499.59;5056730;27;96671;-35
2022/06/22 06:20:29;;;;;;;5.88;3.40;;;;;;;17.26;66.61;101504.97;5056284;27;101260;-34
2022/06/22 06:23:02;;;;;;;6.47;3.40;;;;;;;17.35;66.56;101507.88;5056498;27;100646;-34
2022/06/22 06:28:33;;;;;;;9.15;3.63;;;;;;;17.60;66.24;101516.84;5058537;27;96539;-34
2022/06/22 06:31:12;;;;;;;6.28;3.85;;;;;;;17.68;66.39;101518.94;5056276;27;100964;-34
2022/06/22 06:33:39;;;;;;;11.15;3.17;;;;;;;17.77;65.43;101504.50;5055913;27;101042;-34
2022/06/22 06:36:16;;;;;;;8.80;3.22;;;;;;;17.95;65.25;101519.50;5057599;27;96747;-34
2022/06/22 06:38:53;;;;;;;10.75;3.50;;;;;;;18.01;65.20;101486.06;5057653;27;96799;-34
2022/06/22 06:41:29;;;;;;;6.25;2.88;;;;;;;18.16;65.14;101494.91;5055330;27;100668;-34
2022/06/22 06:44:25;;;;;;;6.95;2.97;;;;;;;18.38;65.12;101498.59;5055927;27;100928;-34
2022/06/22 06:46:56;;;;;;;6.40;3.17;;;;;;;18.43;64.29;101486.22;5032148;27;96760;-34
2022/06/22 06:49:46;;;;;;;9.52;3.45;;;;;;;18.60;64.76;101489.41;5056239;27;96782;-34
2022/06/22 06:52:35;;;;;;;6.22;3.13;;;;;;;18.70;63.90;101486.75;5056022;27;99533;-34
2022/06/22 06:55:13;;;;;;;5.72;3.03;;;;;;;18.85;63.32;101497.31;5072955;27;100879;-34
2022/06/22 06:57:46;;;;;;;9.38;3.88;;;;;;;18.97;62.71;101489.88;5055626;27;96707;-34
2022/06/22 07:00:12;;;;;;;4.97;3.08;;;;;;;19.13;62.81;101491.28;5055558;27;97027;-35
2022/06/22 07:02:41;;;;;;;4.53;3.13;;;;;;;19.15;61.70;101486.53;5055957;27;100769;-34
2022/06/22 07:05:13;;;;;;;4.95;2.90;;;;;;;19.20;61.29;101473.28;5055422;27;100827;-34
2022/06/22 07:07:58;;;;;;;6.45;3.42;;;;;;;19.29;61.20;101476.06;5055446;27;96653;-34
2022/06/22 07:10:29;;;;;;;11.05;3.17;;;;;;;19.44;61.04;101493.06;5055978;27;96744;-34
2022/06/22 07:13:00;;;;;;;5.15;3.00;;;;;;;19.61;60.38;101482.44;5057026;27;97985;-34
2022/06/22 07:15:34;;;;;;;4.70;2.50;;;;;;;19.72;59.72;101477.75;5072537;27;100760;-34
2022/06/22 07:18:09;;;;;;;6.35;3.00;;;;;;;19.90;59.59;101482.59;5055725;27;96755;-35
2022/06/22 07:20:39;;;;;;;5.65;3.00;;;;;;;19.94;58.01;101484.91;5055737;27;96818;-34
2022/06/22 07:23:43;;;;;;;8.63;3.90;;;;;;;20.04;56.72;101503.34;5055449;27;101978;-34
2022/06/22 07:26:20;;;;;;;7.97;3.00;;;;;;;20.22;57.57;101498.03;5055312;27;98736;-34
2022/06/22 07:28:57;;;;;;;8.40;3.40;;;;;;;20.31;57.16;101495.31;5055647;27;96706;-34
2022/06/22 07:31:30;;;;;;;7.18;3.38;;;;;;;20.29;57.46;101478.06;5055629;27;96746;-34
2022/06/22 07:34:04;;;;;;;10.90;3.88;;;;;;;20.43;56.21;101473.16;5055632;27;97465;-34
2022/06/22 07:37:03;;;;;;;8.35;3.88;;;;;;;20.63;56.25;101485.09;5055070;27;100314;-34
2022/06/22 07:39:38;;;;;;;8.52;3.30;;;;;;;20.72;54.92;101474.06;5048272;27;96721;-34
2022/06/22 07:42:04;;;;;;;8.27;3.72;;;;;;;20.72;55.08;101463.06;5055516;27;96749;-34
2022/06/22 07:44:32;;;;;;;10.18;3.85;;;;;;;20.87;54.97;101470.88;5056032;27;99428;-34
2022/06/22 07:47:08;;;;;;;10.20;4.40;;;;;;;20.83;54.02;101470.28;5055152;27;100613;-34
2022/06/22 07:49:52;;;;;;;7.40;3.70;;;;;;;20.93;53.37;101478.56;5055257;27;96651;-34
2022/06/22 07:52:23;;;;;;;6.88;3.45;;;;;;;21.02;52.81;101471.28;5056999;27;96671;-34
2022/06/22 07:55:01;;;;;;;7.20;3.17;;;;;;;21.04;52.50;101467.34;5054938;27;104062;-34
2022/06/22 07:57:50;;;;;;;9.02;3.70;;;;;;;21.20;51.15;101481.41;5061322;27;100468;-35
2022/06/22 08:00:19;;;;;;;9.77;2.85;;;;;;;21.24;51.19;101473.72;5075085;27;96639;-34
2022/06/22 08:02:49;;;;;;;7.03;3.30;;;;;;;21.29;49.88;101454.84;5072683;27;96808;-34
2022/06/22 08:05:20;;;;;;;9.27;3.50;;;;;;;21.38;50.63;101467.72;5055751;27;103315;-34
2022/06/22 08:07:45;;;;;;;5.90;2.55;;;;;;;21.43;51.04;101467.31;5053911;27;101320;-35
2022/06/22 08:10:30;;;;;;;10.43;2.97;;;;;;;21.61;50.00;101467.38;5056177;27;96437;-34
2022/06/22 08:13:15;;;;;;;6.47;2.72;;;;;;;21.77;50.55;101475.00;5054959;27;96718;-34
2022/06/22 08:15:50;;;;;;;10.43;3.22;;;;;;;21.91;48.47;101471.75;5055382;27;99380;-35
2022/06/22 08:18:18;;;;;;;9.10;2.88;;;;;;;21.87;50.00;101459.28;5066463;27;100613;-34
2022/06/22 08:20:46;;;;;;;14.45;3.30;;;;;;;22.00;48.94;101472.69;5075276;27;96561;-34
2022/06/22 08:23:22;;;;;;;4.88;2.42;;;;;;;21.95;48.22;101473.19;5073211;27;96783;-34
2022/06/22 08:25:49;;;;;;;9.32;2.50;;;;;;;22.08;47.99;101481.09;5074280;27;101083;-34
2022/06/22 08:28:18;;;;;;;4.63;2.40;;;;;;;22.29;48.84;101485.50;5074775;27;101003;-35
2022/06/22 08:30:44;;;;;;;8.88;3.00;;;;;;;22.34;48.75;101480.38;5073201;27;96796;-35
2022/06/22 08:33:14;;;;;;;7.90;2.70;;;;;;;22.43;47.29;101474.78;5074479;27;96823;-34
2022/06/22 08:35:47;;;;;;;7.72;2.45;;;;;;;22.60;48.20;101480.47;5074649;27;101490;-34
2022/06/22 08:38:37;;;;;;;4.00;2.25;;;;;;;22.59;46.72;101475.97;5074733;27;100466;-34
2022/06/22 08:41:12;;;;;;;3.78;2.30;;;;;;;22.78;45.58;101470.28;5076408;27;96694;-34
2022/06/22 08:43:45;;;;;;;4.38;2.33;;;;;;;22.97;46.35;101473.88;5074584;27;96702;-34
2022/06/22 08:46:39;;;;;;;6.00;2.42;;;;;;;22.98;45.00;101478.41;5068008;27;97579;-34
2022/06/22 08:49:28;;;;;;;5.88;2.20;;;;;;;23.03;46.30;101481.59;5075711;27;99208;-34
2022/06/22 08:52:17;;;;;;;5.50;2.05;;;;;;;23.14;45.05;101481.31;5075793;27;96565;-34
2022/06/22 08:55:00;;;;;;;12.57;2.22;;;;;;;23.22;42.68;101481.38;5074665;27;96698;-34
2022/06/22 08:58:03;;;;;;;5.68;2.47;;;;;;;23.36;43.03;101487.31;5074275;27;100843;-34
2022/06/22 09:01:13;;;;;;;8.18;2.42;;;;;;;23.56;44.50;101479.69;5073755;27;96778;-34
2022/06/22 09:04:08;;;;;;;3.95;1.90;;;;;;;23.71;44.13;101478.91;5074685;27;96640;-34
2022/06/22 09:06:55;;;;;;;4.55;1.95;;;;;;;23.86;43.26;101476.44;5074632;27;96714;-34
2022/06/22 09:09:42;;;;;;;2.58;1.65;;;;;;;23.89;42.90;101475.22;5074308;27;101223;-34
2022/06/22 09:12:19;;;;;;;4.38;2.13;;;;;;;23.91;43.79;101482.31;5074299;27;101117;-34
2022/06/22 09:15:22;;;;;;;4.85;1.90;;;;;;;24.06;42.69;101474.25;5075660;27;96461;-34
2022/06/22 09:18:17;;;;;;;5.07;1.88;;;;;;;24.10;44.02;101472.88;5075922;27;96909;-34
2022/06/22 09:20:57;;;;;;;7.30;2.38;;;;;;;24.18;41.00;101472.03;5063851;27;97484;-34
2022/06/22 09:23:54;;;;;;;5.18;2.30;;;;;;;24.17;41.45;101476.72;5074028;27;104189;-34
2022/06/22 09:26:34;;;;;;;8.07;2.20;;;;;;;24.29;41.28;101471.72;5075808;27;96479;-34
2022/06/22 09:29:05;;;;;;;4.60;1.90;;;;;;;24.33;41.83;101464.78;5075554;27;96791;-34
2022/06/22 09:31:49;;;;;;;3.37;1.50;;;;;;;24.52;40.01;101483.03;5075607;27;96748;-34
2022/06/22 09:34:51;;;;;;;3.53;1.90;;;;;;;24.61;41.13;101474.75;5074982;27;97355;-34
2022/06/22 09:37:22;;;;;;;5.38;1.80;;;;;;;24.64;40.78;101483.59;5075482;27;96730;-34
2022/06/22 09:40:09;;;;;;;4.68;1.70;;;;;;;24.63;40.19;101479.09;5075792;27;96547;-34
2022/06/22 09:42:54;;;;;;;6.30;2.13;;;;;;;24.74;40.30;101478.75;5075307;27;98010;-34
2022/06/22 09:45:25;;;;;;;3.10;1.38;;;;;;;24.87;38.78;101475.47;5073443;27;100782;-35
2022/06/22 09:48:04;;;;;;;2.63;1.50;;;;;;;24.98;39.42;101477.03;5073594;27;96601;-34
2022/06/22 09:50:46;;;;;;;3.78;1.42;;;;;;;25.03;38.94;101477.38;5074090;27;96712;-34
2022/06/22 09:53:42;;;;;;;6.60;1.90;;;;;;;25.08;40.00;101476.88;5073762;27;100986;-34
2022/06/22 09:56:27;;;;;;;5.22;1.63;;;;;;;25.11;37.66;101482.91;5074902;27;99150;-34
2022/06/22 09:59:23;;;;;;;2.90;1.40;;;;;;;25.38;39.02;101481.69;5073873;27;96610;-34
2022/06/22 10:02:00;;;;;;;2.80;1.50;;;;;;;25.43;37.52;101486.69;5075410;27;96522;-34
2022/06/22 10:04:31;;;;;;;3.95;1.50;;;;;;;25.32;36.89;101484.31;5074879;27;99643;-34
2022/06/22 10:07:21;;;;;;;3.70;1.48;;;;;;;25.47;37.60;101488.09;5075155;27;97853;-35
2022/06/22 10:10:08;;;;;;;3.67;1.48;;;;;;;25.50;37.97;101479.41;5075387;27;96706;-34
2022/06/22 10:12:48;;;;;;;2.97;1.50;;;;;;;25.76;38.13;101481.06;5073407;27;96693;-34
2022/06/22 10:15:35;;;;;;;2.63;1.25;;;;;;;25.98;37.92;101479.44;5074394;27;98105;-35
2022/06/22 10:18:14;;;;;;;5.40;1.65;;;;;;;25.91;38.23;101478.44;5074753;27;97385;-34
2022/06/22 10:21:14;;;;;;;4.22;1.73;;;;;;;25.96;36.79;101476.00;5073572;27;96670;-34
2022/06/22 10:23:48;;;;;;;1.95;1.40;;;;;;;26.15;37.53;101469.13;5075008;27;96625;-34
2022/06/22 10:26:42;;;;;;;5.00;1.50;;;;;;;26.12;35.56;101475.03;5073076;27;100875;-35
2022/06/22 10:29:13;;;;;;;2.88;1.25;;;;;;;26.18;34.67;101466.84;5074391;27;97878;-35
2022/06/22 10:31:57;;;;;;;3.25;1.20;;;;;;;26.07;35.01;101467.25;5076312;27;96481;-34
2022/06/22 10:34:24;;;;;;;1.80;1.13;;;;;;;26.18;36.04;101471.56;5076654;27;96764;-34
2022/06/22 10:36:55;;;;;;;3.92;1.35;;;;;;;26.27;35.46;101474.09;5077877;27;99242;-34
2022/06/22 10:39:20;;;;;;;2.55;1.33;;;;;;;26.34;36.15;101465.91;5077872;27;99238;-34
2022/06/22 10:45:13;;;;;;;4.30;1.40;;;;;;;26.47;34.74;101465.28;5076764;27;96934;-34
2022/06/22 10:48:00;;;;;;;3.20;1.38;;;;;;;26.50;35.26;101464.91;5077692;27;98746;-35
2022/06/22 10:50:56;;;;;;;5.45;1.75;;;;;;;26.45;34.75;101464.59;5077944;27;98065;-34
2022/06/22 10:54:11;;;;;;;2.78;1.40;;;;;;;26.56;31.71;101467.00;5076660;27;96657;-34
2022/06/22 10:57:13;;;;;;;8.75;1.70;;;;;;;26.55;32.93;101464.41;5078205;27;96591;-35
2022/06/22 10:59:41;;;;;;;2.05;1.02;;;;;;;26.60;33.57;101473.94;5077643;27;99260;-34
2022/06/22 11:02:26;;;;;;;3.47;1.38;;;;;;;26.67;33.46;101447.13;5077957;27;99814;-34
2022/06/22 11:05:00;;;;;;;2.53;1.25;;;;;;;26.84;33.67;101463.63;5076368;27;96561;-34
2022/06/22 11:08:07;;;;;;;3.42;1.20;;;;;;;26.72;32.64;101467.91;5078247;27;96571;-35
2022/06/22 11:10:46;;;;;;;2.20;1.20;;;;;;;26.75;31.83;101460.09;5069026;27;98915;-35
2022/06/22 11:13:21;;;;;;;1.63;1.10;;;;;;;26.88;32.97;101459.44;5076049;27;100511;-35
2022/06/22 11:16:08;;;;;;;2.20;0.90;;;;;;;26.82;32.08;101461.06;5076519;27;96648;-35
2022/06/22 11:19:12;;;;;;;1.27;0.70;;;;;;;26.97;31.25;101451.91;5077490;27;96807;-34
2022/06/22 11:22:14;;;;;;;2.35;1.20;;;;;;;26.89;32.07;101450.06;5075841;27;97981;-34
2022/06/22 11:24:45;;;;;;;4.78;1.10;;;;;;;26.93;32.15;101453.31;5077558;27;97755;-34
2022/06/22 11:30:48;;;;;;;2.22;1.02;;;;;;;27.02;32.27;101441.94;5077038;27;96791;-35
2022/06/22 11:33:38;;;;;;;4.05;1.30;;;;;;;27.11;30.02;101434.38;5074749;27;101056;-35
2022/06/22 11:36:19;;;;;;;0.80;0.60;;;;;;;27.24;30.31;101436.53;5075696;27;101324;-35
2022/06/22 11:38:59;;;;;;;0.70;0.60;;;;;;;27.27;29.49;101427.84;5075528;27;97118;-35
2022/06/22 11:41:26;;;;;;;1.83;1.02;;;;;;;27.25;31.40;101438.28;5077669;27;96585;-35
2022/06/22 11:44:12;;;;;;;2.47;1.08;;;;;;;27.17;31.08;101435.53;5076469;27;99681;-35
2022/06/22 11:47:24;;;;;;;1.80;1.00;;;;;;;27.27;31.29;101438.97;5075398;27;100725;-35
2022/06/22 11:50:00;;;;;;;1.23;0.88;;;;;;;27.47;31.88;101439.25;5077400;27;96642;-35
2022/06/22 11:52:44;;;;;;;1.02;0.73;;;;;;;27.43;30.69;101429.56;5073313;27;98492;-35
2022/06/22 11:55:16;;;;;;;2.50;1.27;;;;;;;27.51;31.00;101433.13;5072943;27;100774;-35
2022/06/22 11:57:58;;;;;;;;;;;;;;;27.63;30.68;101432.66;5055823;27;100426;-35
2022/06/22 12:00:43;;;;;;;0.93;0.70;;;;;;;27.78;31.68;101422.34;5056782;27;96556;-34
2022/06/22 12:03:39;;;;;;;1.95;0.88;;;;;;;27.94;32.33;101427.72;5055187;27;96868;-35
2022/06/22 12:06:38;;;;;;;2.35;0.90;;;;;;;27.82;30.90;101418.13;5055660;27;99709;-34
2022/06/22 12:09:09;;;;;;;0.93;0.77;;;;;;;27.85;32.24;101426.13;5055906;27;97403;-34
2022/06/22 12:11:43;;;;;;;4.93;1.05;;;;;;;27.81;31.32;101416.38;5054974;27;96650;-35
2022/06/22 12:17:33;;;;;;;2.20;1.38;;;;;;;27.87;30.79;101412.88;5055021;27;96938;-35
2022/06/22 12:20:19;;;;;;;3.40;1.15;;;;;;;27.93;31.65;101422.34;5055803;27;99129;-34
2022/06/22 12:23:10;;;;;;;3.33;1.02;;;;;;;28.00;31.57;101414.94;5056495;27;96613;-34
2022/06/22 12:25:54;;;;;;;3.88;1.00;;;;;;;27.99;32.01;101406.78;5055124;27;97021;-35
2022/06/22 12:28:32;;;;;;;3.30;0.93;;;;;;;27.97;31.26;101404.19;5054424;27;100796;-35
2022/06/22 12:31:04;;;;;;;2.85;1.08;;;;;;;28.05;31.43;101397.63;5054313;27;100886;-35
2022/06/22 12:33:38;;;;;;;2.35;0.98;;;;;;;28.11;32.02;101403.28;5054983;27;100583;-35
2022/06/22 12:36:14;;;;;;;4.15;1.20;;;;;;;28.12;32.20;101412.50;5054664;27;96639;-35
2022/06/22 12:38:59;;;;;;;2.75;1.13;;;;;;;28.15;31.52;101406.53;5054290;27;100823;-35
2022/06/22 12:41:46;;;;;;;3.33;0.90;;;;;;;28.07;31.98;101403.88;5056138;27;96480;-34
2022/06/22 12:44:34;;;;;;;3.15;1.00;;;;;;;28.01;30.29;101393.50;5056057;27;96588;-35
2022/06/22 12:47:14;;;;;;;1.38;0.93;;;;;;;27.85;31.14;101389.06;5054479;27;96766;-35
2022/06/22 12:50:10;;;;;;;5.20;1.02;;;;;;;28.01;32.42;101394.41;5054147;27;100860;-34
2022/06/22 12:52:50;;;;;;;2.08;1.17;;;;;;;28.01;30.67;101383.25;5056068;27;98027;-34
2022/06/22 12:55:27;;;;;;;7.28;1.17;;;;;;;28.08;31.53;101388.88;5053761;27;96915;-34
2022/06/22 12:58:14;;;;;;;1.88;1.25;;;;;;;27.89;30.91;101379.25;5054231;27;96707;-34
2022/06/22 13:00:41;;;;;;;3.75;1.40;;;;;;;27.81;30.59;101374.59;5054801;27;99824;-35
2022/06/22 13:03:15;;;;;;;3.50;1.42;;;;;;;27.82;32.33;101359.66;5053938;27;100966;-35
2022/06/22 13:05:41;;;;;;;2.45;1.35;;;;;;;27.91;32.54;101366.88;5054069;27;96649;-35
2022/06/22 13:08:16;;;;;;;2.70;1.10;;;;;;;28.02;32.13;101357.13;5055782;27;96801;-34
2022/06/22 13:11:02;;;;;;;2.15;1.05;;;;;;;28.08;32.04;101349.88;5053744;27;100795;-35
2022/06/22 13:13:49;;;;;;;3.72;1.45;;;;;;;27.96;32.04;101363.50;5053820;27;100818;-34
2022/06/22 13:16:22;;;;;;;1.98;1.17;;;;;;;27.92;33.16;101351.88;5055568;27;96673;-35
2022/06/22 13:19:03;;;;;;;2.30;1.23;;;;;;;27.82;30.81;101348.50;5054520;27;96795;-34
2022/06/22 13:21:45;;;;;;;3.20;1.02;;;;;;;27.88;31.74;101353.31;5053701;27;101476;-35
2022/06/22 13:24:23;;;;;;;1.88;1.17;;;;;;;27.81;31.64;101343.13;5055237;27;97358;-35
2022/06/22 13:27:13;;;;;;;1.83;1.33;;;;;;;27.82;31.04;101345.72;5053311;27;96759;-35
2022/06/22 13:29:47;;;;;;;2.63;1.10;;;;;;;27.85;32.69;101344.50;5055475;27;96513;-34
2022/06/22 13:32:13;;;;;;;4.63;1.60;;;;;;;27.76;32.97;101335.34;5053338;27;99168;-35
2022/06/22 13:34:45;;;;;;;2.35;1.25;;;;;;;27.82;32.87;101345.72;5052857;27;101505;-35
2022/06/22 13:37:40;;;;;;;4.78;1.30;;;;;;;27.85;31.51;101345.34;5053690;27;96833;-35
2022/06/22 13:40:26;;;;;;;3.67;1.20;;;;;;;27.87;32.17;101339.59;5050737;27;96779;-34
2022/06/22 13:43:10;;;;;;;3.03;1.40;;;;;;;27.68;32.56;101339.13;5054835;27;97553;-34
2022/06/22 13:45:57;;;;;;;3.85;1.38;;;;;;;27.64;32.48;101336.94;5055071;27;97796;-34
2022/06/22 13:48:35;;;;;;;1.40;1.00;;;;;;;27.59;32.76;101334.72;5055276;27;96587;-35
2022/06/22 13:51:29;;;;;;;2.38;1.20;;;;;;;27.58;32.23;101329.34;5055265;27;96539;-35
2022/06/22 13:54:26;;;;;;;1.73;1.10;;;;;;;27.59;32.02;101326.38;5052838;27;100929;-35
2022/06/22 13:57:09;;;;;;;1.88;1.05;;;;;;;27.41;32.31;101324.03;5053170;27;101294;-35
2022/06/22 13:59:40;;;;;;;1.42;1.10;;;;;;;27.33;32.36;101321.31;5054887;27;96824;-35
2022/06/22 14:02:25;;;;;;;1.88;1.05;;;;;;;27.19;33.02;101316.59;5054924;27;96772;-35
2022/06/22 14:04:56;;;;;;;3.92;1.50;;;;;;;27.29;33.71;101314.41;5053149;27;98933;-35
2022/06/22 14:08:02;;;;;;;3.80;1.50;;;;;;;27.36;32.92;101315.38;5055058;27;101363;-35
2022/06/22 14:10:43;;;;;;;3.42;1.15;;;;;;;27.23;33.80;101316.06;5047824;27;96569;-35
2022/06/22 14:13:33;;;;;;;3.10;1.10;;;;;;;27.20;33.22;101318.38;5058366;27;96608;-35
2022/06/22 14:16:06;;;;;;;1.80;0.90;;;;;;;27.19;33.82;101313.81;5057736;27;98786;-35
2022/06/22 14:18:36;;;;;;;3.65;1.13;;;;;;;27.21;33.90;101314.53;5056315;27;101372;-35
2022/06/22 14:21:29;;;;;;;2.97;1.20;;;;;;;27.29;33.93;101320.88;5057489;27;96564;-35
2022/06/22 14:23:55;;;;;;;2.85;1.25;;;;;;;27.27;33.52;101297.09;5058203;27;96758;-35
2022/06/22 14:26:55;;;;;;;6.80;1.30;;;;;;;27.29;33.22;101309.75;5056350;27;101101;-35
2022/06/22 14:29:40;;;;;;;1.85;1.25;;;;;;;27.24;33.28;101303.88;5057868;27;97349;-35
2022/06/22 14:32:18;;;;;;;1.98;1.20;;;;;;;27.10;33.28;101301.91;5058129;27;96775;-35
2022/06/22 14:35:01;;;;;;;3.97;0.98;;;;;;;27.04;33.84;101311.91;5057415;27;96476;-34
2022/06/22 14:37:35;;;;;;;3.72;1.60;;;;;;;27.15;33.71;101304.13;5057626;27;97910;-35
2022/06/22 14:40:22;;;;;;;1.52;1.02;;;;;;;27.20;33.92;101298.91;5056564;27;100395;-34
2022/06/22 14:43:04;;;;;;;3.67;1.20;;;;;;;26.97;32.11;101302.59;5058153;27;96741;-35
2022/06/22 14:45:38;;;;;;;3.70;1.20;;;;;;;26.92;33.01;101290.34;5055976;27;97455;-34
2022/06/22 14:48:31;;;;;;;2.47;1.10;;;;;;;26.96;33.15;101295.34;5055626;27;101574;-35
2022/06/22 14:51:16;;;;;;;1.23;0.90;;;;;;;26.94;33.96;101305.78;5057441;27;99304;-35
2022/06/22 14:54:01;;;;;;;4.18;1.30;;;;;;;26.92;33.20;101298.69;5056216;27;96684;-35
2022/06/22 14:57:02;;;;;;;1.45;1.10;;;;;;;26.91;34.00;101300.59;5057678;27;96731;-35
2022/06/22 14:59:31;;;;;;;3.53;1.50;;;;;;;26.92;34.59;101301.47;5055662;27;102148;-35
2022/06/22 15:02:01;;;;;;;0.75;0.75;;;;;;;26.87;33.28;101297.34;5057386;27;97932;-35
2022/06/22 15:04:51;;;;;;;3.55;1.35;;;;;;;26.93;33.74;101292.91;5063673;27;98435;-35
2022/06/22 15:07:29;;;;;;;4.90;1.50;;;;;;;26.84;34.57;101296.84;5075589;27;97165;-36
2022/06/22 15:10:05;;;;;;;2.75;1.27;;;;;;;26.90;33.60;101309.97;5074390;27;100996;-35
2022/06/22 15:15:29;;;;;;;2.53;1.33;;;;;;;26.76;34.36;101305.28;5075281;27;96517;-34
2022/06/22 15:18:16;;;;;;;2.90;1.30;;;;;;;26.80;33.90;101304.72;5075887;27;96828;-35
2022/06/22 15:20:55;;;;;;;3.50;1.13;;;;;;;26.71;34.66;101283.59;5077186;27;98760;-35
2022/06/22 15:23:35;;;;;;;3.13;1.35;;;;;;;26.60;34.06;101287.72;5075895;27;101182;-35
2022/06/22 15:26:14;;;;;;;1.77;1.05;;;;;;;26.53;34.64;101289.50;5075331;27;96791;-35
2022/06/22 15:28:50;;;;;;;3.08;1.35;;;;;;;26.52;34.38;101292.47;5076138;27;96820;-35
2022/06/22 15:31:30;;;;;;;4.30;1.40;;;;;;;26.44;34.78;101288.72;5075815;27;101105;-35
2022/06/22 15:34:23;;;;;;;3.40;1.40;;;;;;;26.52;35.21;101286.91;5076971;27;98764;-35
2022/06/22 15:37:26;;;;;;;5.57;1.20;;;;;;;26.55;35.50;101278.22;5077672;27;96474;-35
2022/06/22 15:40:10;;;;;;;3.70;1.50;;;;;;;26.53;35.17;101278.38;5077221;27;96868;-35
2022/06/22 15:42:44;;;;;;;2.95;1.30;;;;;;;26.58;35.26;101280.63;5077127;27;97527;-35
2022/06/22 15:45:35;;;;;;;3.58;1.27;;;;;;;26.56;34.34;101282.75;5075388;27;101152;-35
2022/06/22 15:48:10;;;;;;;1.52;1.17;;;;;;;26.51;35.59;101269.38;5076892;27;96718;-35
2022/06/22 15:50:50;;;;;;;2.05;1.17;;;;;;;26.52;35.22;101271.09;5075741;27;96876;-35
2022/06/22 15:53:25;;;;;;;2.30;1.25;;;;;;;26.55;35.60;101258.75;5076809;27;99264;-35
2022/06/22 15:55:56;;;;;;;3.15;1.17;;;;;;;26.59;34.79;101271.22;5075422;27;100670;-34
2022/06/22 15:58:40;;;;;;;2.65;1.27;;;;;;;26.58;35.79;101263.97;5075657;27;96674;-35
2022/06/22 16:01:12;;;;;;;2.85;1.58;;;;;;;26.58;35.08;101267.59;5077545;27;96761;-35
2022/06/22 16:03:42;;;;;;;3.40;1.30;;;;;;;26.52;35.44;101265.53;5075307;27;100627;-35
2022/06/22 16:06:13;;;;;;;2.65;1.20;;;;;;;26.45;35.17;101270.13;5075128;27;100874;-35
2022/06/22 16:08:45;;;;;;;3.00;1.25;;;;;;;26.35;35.30;101272.31;5075157;27;96682;-35
2022/06/22 16:14:15;;;;;;;3.83;1.20;;;;;;;26.32;35.00;101254.09;5076730;27;97122;-35
2022/06/22 16:16:50;;;;;;;2.58;1.30;;;;;;;26.32;34.87;101264.34;5075079;27;98941;-35
2022/06/22 16:19:39;;;;;;;2.17;1.15;;;;;;;26.22;34.74;101259.94;5076580;27;96627;-35
2022/06/22 16:22:12;;;;;;;1.67;0.98;;;;;;;26.20;35.15;101264.81;5075267;27;96781;-35
2022/06/22 16:24:44;;;;;;;2.22;1.20;;;;;;;26.10;34.46;101239.22;5074883;27;100848;-34
2022/06/22 16:27:17;;;;;;;4.60;1.40;;;;;;;26.13;34.78;101255.50;5075246;27;101262;-35
2022/06/22 16:29:48;;;;;;;1.98;1.20;;;;;;;26.12;35.50;101255.66;5075539;27;97525;-35
2022/06/22 16:32:20;;;;;;;2.38;0.90;;;;;;;26.09;35.23;101248.56;5074854;27;96851;-35
2022/06/22 16:34:59;;;;;;;1.83;1.02;;;;;;;26.13;34.46;101261.03;5074048;27;100834;-35
2022/06/22 16:37:32;;;;;;;2.40;0.98;;;;;;;26.09;35.07;101256.03;5076407;27;97873;-35
2022/06/22 16:40:08;;;;;;;2.47;1.15;;;;;;;26.05;35.05;101255.53;5075206;27;96551;-35
2022/06/22 16:43:01;;;;;;;1.75;1.20;;;;;;;25.97;34.62;101244.50;5075030;27;96915;-34
2022/06/22 16:45:40;;;;;;;8.18;1.50;;;;;;;25.91;34.93;101239.69;5076031;27;98060;-35
2022/06/22 16:48:14;;;;;;;3.25;1.20;;;;;;;25.81;35.35;101228.81;5074593;27;101150;-35
2022/06/22 16:51:02;;;;;;;1.35;1.00;;;;;;;25.77;35.31;101235.81;5075027;27;96654;-34
2022/06/22 16:53:40;;;;;;;2.28;1.08;;;;;;;25.82;35.62;101242.50;5075238;27;96704;-35
2022/06/22 16:56:15;;;;;;;3.35;1.75;;;;;;;25.68;35.78;101221.09;5076020;27;97572;-34
2022/06/22 16:58:41;;;;;;;2.00;1.08;;;;;;;25.66;35.80;101237.06;5074380;27;100471;-35
2022/06/22 17:01:22;;;;;;;2.05;1.23;;;;;;;25.57;35.72;101230.72;5074072;27;96835;-35
2022/06/22 17:04:12;;;;;;;1.55;1.10;;;;;;;25.55;36.07;101240.25;5074609;27;96704;-35
2022/06/22 17:06:55;;;;;;;1.17;0.88;;;;;;;25.51;35.95;101236.16;5075752;27;97950;-35
2022/06/22 17:09:28;;;;;;;3.78;1.27;;;;;;;25.39;36.03;101232.94;5075692;27;97833;-35
2022/06/22 17:11:56;;;;;;;2.85;1.20;;;;;;;25.29;36.17;101227.63;5076211;27;96600;-35
2022/06/22 17:14:31;;;;;;;2.47;1.40;;;;;;;25.23;36.63;101233.88;5074443;27;96953;-34
2022/06/22 17:17:45;;;;;;;2.85;1.20;;;;;;;25.16;36.90;101242.00;5074069;27;101329;-35
2022/06/22 17:20:27;;;;;;;3.88;1.10;;;;;;;25.04;37.11;101225.97;5052839;27;97442;-35
2022/06/22 17:23:12;;;;;;;1.35;1.10;;;;;;;24.93;37.25;101228.09;5036094;27;96605;-35
2022/06/22 17:25:44;;;;;;;2.10;1.35;;;;;;;25.00;37.53;101237.44;5064693;27;96848;-34
2022/06/22 17:28:17;;;;;;;2.30;1.00;;;;;;;25.04;37.63;101249.00;5073447;27;100943;-35
2022/06/22 17:30:54;;;;;;;1.80;1.05;;;;;;;25.00;37.31;101244.84;5075358;27;97791;-34
2022/06/22 17:33:44;;;;;;;2.03;1.20;;;;;;;24.93;37.59;101238.28;5073467;27;96772;-35
2022/06/22 17:36:27;;;;;;;2.45;1.00;;;;;;;24.84;38.04;101231.94;5068575;27;96787;-35
2022/06/22 17:39:14;;;;;;;2.63;1.30;;;;;;;24.64;37.53;101214.84;5073900;27;101260;-35
2022/06/22 17:41:53;;;;;;;3.08;1.13;;;;;;;24.62;38.44;101222.47;5079140;27;101276;-35
2022/06/22 17:44:21;;;;;;;4.03;1.33;;;;;;;24.60;38.09;101232.88;5080596;27;97916;-35
2022/06/22 17:46:59;;;;;;;1.77;1.40;;;;;;;24.52;38.25;101228.22;5082430;27;97176;-34
2022/06/22 17:49:31;;;;;;;2.85;1.00;;;;;;;24.53;38.47;101229.09;5080622;27;100891;-35
2022/06/22 17:51:59;;;;;;;1.20;0.80;;;;;;;24.55;38.36;101238.94;5082231;27;97895;-34
2022/06/22 17:54:40;;;;;;;2.17;1.17;;;;;;;24.58;38.35;101244.13;5080269;27;96685;-34
2022/06/22 17:57:14;;;;;;;2.47;1.20;;;;;;;24.56;38.07;101245.34;5080876;27;96797;-35
2022/06/22 17:59:54;;;;;;;3.58;1.00;;;;;;;24.47;38.49;101236.19;5080414;27;100917;-34
2022/06/22 18:02:29;;;;;;;2.75;0.85;;;;;;;24.38;38.96;101229.78;5080514;27;100915;-34
2022/06/22 18:05:30;;;;;;;2.00;1.17;;;;;;;24.43;38.77;101245.88;5080724;27;96612;-35
2022/06/22 18:08:03;;;;;;;1.17;0.77;;;;;;;24.34;39.06;101233.94;5081983;27;96742;-35
2022/06/22 18:10:29;;;;;;;1.85;1.10;;;;;;;24.32;38.89;101238.78;5080403;27;101538;-34
2022/06/22 18:12:55;;;;;;;2.55;1.27;;;;;;;24.25;38.77;101243.28;5080613;27;100849;-35